Time;durP1;ratioP1;P1;durP2;ratioP2;P2;SDS_P1;SDS_P2;PMS_P1;PMS_P2;Temp;Humidity;BMP_temperature;BMP_pressure;BME280_temperature;BME280_humidity;BME280_pressure;Samples;Min_cycle;Max_cycle;Signal;HPM_P1;HPM_P2
2021/07/13 00:00:36;;;;;;;12.88;10.60;;;22.00;84.50;;;;;;5018564;28;20057;-39
2021/07/13 00:03:05;;;;;;;14.23;11.63;;;22.00;84.40;;;;;;5018848;28;20069;-43
2021/07/13 00:05:31;;;;;;;15.30;10.73;;;21.90;84.60;;;;;;5018617;28;20026;-39
2021/07/13 00:07:57;;;;;;;12.85;10.70;;;21.90;84.80;;;;;;5018689;28;20037;-38
2021/07/13 00:10:25;;;;;;;10.27;9.18;;;21.80;85.70;;;;;;5018777;28;20034;-39
2021/07/13 00:12:52;;;;;;;13.32;9.93;;;21.90;85.10;;;;;;5018522;28;20038;-39
2021/07/13 00:15:21;;;;;;;17.42;10.63;;;21.80;85.00;;;;;;5018084;28;20082;-42
2021/07/13 00:17:51;;;;;;;14.07;10.57;;;21.80;84.90;;;;;;5018594;28;20034;-39
2021/07/13 00:20:17;;;;;;;13.20;10.35;;;21.80;84.60;;;;;;5018228;28;20033;-43
2021/07/13 00:22:43;;;;;;;10.80;9.23;;;21.80;84.70;;;;;;5018319;28;20394;-39
2021/07/13 00:25:11;;;;;;;16.83;9.90;;;21.80;85.10;;;;;;5018018;28;20030;-42
2021/07/13 00:27:36;;;;;;;12.80;9.95;;;21.90;84.90;;;;;;5018597;28;20059;-39
2021/07/13 00:30:04;;;;;;;15.23;9.38;;;21.80;84.60;;;;;;5018210;28;20410;-42
2021/07/13 00:32:29;;;;;;;12.13;10.18;;;21.80;84.40;;;;;;5018035;28;20175;-39
2021/07/13 00:34:55;;;;;;;11.52;9.68;;;21.80;84.00;;;;;;5018003;28;20427;-39
2021/07/13 00:37:21;;;;;;;11.15;9.18;;;21.80;84.50;;;;;;5018221;28;20405;-43
2021/07/13 00:39:46;;;;;;;12.18;10.00;;;21.80;84.50;;;;;;5017611;28;20026;-42
2021/07/13 00:42:14;;;;;;;13.45;10.70;;;21.80;84.50;;;;;;5018018;28;20104;-39
2021/07/13 00:44:42;;;;;;;15.57;10.80;;;21.80;84.60;;;;;;5018096;28;20115;-39
2021/07/13 00:47:08;;;;;;;13.73;10.88;;;21.80;84.70;;;;;;5017703;28;20050;-38
2021/07/13 00:49:34;;;;;;;13.82;10.57;;;21.80;84.60;;;;;;5017937;28;20326;-40
2021/07/13 00:52:00;;;;;;;12.93;10.23;;;21.80;84.90;;;;;;5017655;28;20022;-43
2021/07/13 00:54:27;;;;;;;13.77;10.80;;;21.70;85.20;;;;;;5016645;28;20072;-39
2021/07/13 00:56:55;;;;;;;15.63;10.60;;;21.70;85.30;;;;;;5017562;28;20026;-39
2021/07/13 00:59:21;;;;;;;12.40;11.10;;;21.70;85.50;;;;;;5017883;28;20065;-39
2021/07/13 01:01:47;;;;;;;15.68;11.20;;;21.70;85.80;;;;;;5017344;28;20026;-39
2021/07/13 01:04:14;;;;;;;15.15;10.45;;;21.70;85.90;;;;;;5017068;28;20034;-43
2021/07/13 01:06:43;;;;;;;11.95;10.52;;;21.70;86.30;;;;;;5017670;28;20036;-42
2021/07/13 01:09:22;;;;;;;15.43;10.57;;;21.80;86.10;;;;;;5017366;28;20045;-43
2021/07/13 01:11:57;;;;;;;14.65;11.05;;;21.80;85.90;;;;;;5017762;28;20091;-42
2021/07/13 01:14:31;;;;;;;13.63;10.93;;;21.80;85.90;;;;;;5017077;28;20053;-40
2021/07/13 01:17:04;;;;;;;18.13;12.75;;;21.80;86.10;;;;;;5017196;28;20112;-43
2021/07/13 01:19:35;;;;;;;15.00;11.73;;;21.70;86.00;;;;;;5017473;28;20321;-39
2021/07/13 01:29:17;;;;;;;11.55;9.35;;;21.70;85.90;;;;;;5016927;28;20044;-43
2021/07/13 01:31:46;;;;;;;16.08;11.50;;;21.70;86.10;;;;;;5017298;28;20322;-44
2021/07/13 01:34:21;;;;;;;11.63;9.82;;;21.70;86.50;;;;;;5016836;28;20042;-39
2021/07/13 01:36:58;;;;;;;13.25;10.68;;;21.70;86.40;;;;;;5017218;28;20097;-39
2021/07/13 01:39:25;;;;;;;12.15;9.90;;;21.80;86.50;;;;;;5017087;28;20030;-39
2021/07/13 01:41:54;;;;;;;12.77;9.95;;;21.90;86.50;;;;;;5017265;28;20030;-39
2021/07/13 01:44:22;;;;;;;16.42;10.90;;;21.90;86.00;;;;;;5016524;28;20032;-43
2021/07/13 01:46:50;;;;;;;15.07;10.32;;;21.90;85.80;;;;;;5017018;28;20333;-39
2021/07/13 01:49:19;;;;;;;12.05;10.55;;;21.90;86.00;;;;;;5016778;28;20042;-39
2021/07/13 01:51:47;;;;;;;14.43;10.07;;;21.90;85.90;;;;;;5016755;28;20034;-39
2021/07/13 01:54:15;;;;;;;15.32;10.57;;;21.90;85.80;;;;;;5016510;28;20042;-43
2021/07/13 01:56:41;;;;;;;16.95;12.25;;;21.90;86.00;;;;;;5016550;28;20429;-43
2021/07/13 01:59:11;;;;;;;12.50;10.10;;;21.90;85.70;;;;;;5016628;28;20118;-42
2021/07/13 02:01:37;;;;;;;13.45;11.15;;;21.90;85.80;;;;;;5016849;28;20025;-39
2021/07/13 02:04:04;;;;;;;14.65;10.68;;;21.90;85.90;;;;;;5016718;28;20322;-42
2021/07/13 02:06:31;;;;;;;13.15;11.07;;;21.90;85.80;;;;;;5016398;28;20488;-39
2021/07/13 02:09:01;;;;;;;15.35;10.40;;;21.90;85.60;;;;;;5016448;28;20309;-43
2021/07/13 02:11:28;;;;;;;12.52;10.82;;;22.00;85.70;;;;;;5016998;28;20037;-43
2021/07/13 02:13:54;;;;;;;14.55;9.55;;;22.00;85.80;;;;;;5016230;28;20078;-39
2021/07/13 02:16:20;;;;;;;13.75;11.32;;;22.00;85.80;;;;;;5016256;28;20433;-39
2021/07/13 02:18:49;;;;;;;13.30;9.93;;;22.00;85.80;;;;;;5016400;28;20069;-43
2021/07/13 02:21:16;;;;;;;14.90;10.45;;;22.00;85.90;;;;;;5016512;28;20106;-39
2021/07/13 02:23:42;;;;;;;14.57;11.38;;;22.00;86.00;;;;;;5016398;28;20314;-42
2021/07/13 02:26:15;;;;;;;13.50;11.85;;;22.10;85.90;;;;;;5016217;28;20030;-39
2021/07/13 02:28:45;;;;;;;13.50;10.52;;;22.10;86.00;;;;;;5016132;28;20073;-42
2021/07/13 02:31:22;;;;;;;12.75;10.77;;;22.10;86.00;;;;;;5016146;28;20034;-42
2021/07/13 02:34:08;;;;;;;16.90;11.05;;;22.10;86.00;;;;;;5016022;28;20042;-40
2021/07/13 02:36:36;;;;;;;13.57;11.18;;;22.10;85.70;;;;;;5016522;28;20029;-39
2021/07/13 02:39:06;;;;;;;14.63;11.73;;;22.10;86.10;;;;;;5015876;28;20034;-39
2021/07/13 02:41:32;;;;;;;15.40;11.63;;;22.10;86.20;;;;;;5016315;28;20044;-39
2021/07/13 02:43:59;;;;;;;16.55;11.40;;;22.10;86.40;;;;;;5015819;28;20081;-39
2021/07/13 02:46:28;;;;;;;13.80;11.63;;;22.10;86.70;;;;;;5016297;28;20034;-40
2021/07/13 02:48:57;;;;;;;12.60;11.00;;;22.10;86.80;;;;;;5015504;28;20112;-44
2021/07/13 02:51:26;;;;;;;12.45;10.50;;;22.10;87.20;;;;;;5015857;28;20026;-42
2021/07/13 02:53:54;;;;;;;14.80;10.40;;;22.20;87.20;;;;;;5015691;28;20116;-43
2021/07/13 02:56:24;;;;;;;12.50;10.30;;;22.20;87.50;;;;;;5015811;28;20037;-42
2021/07/13 02:58:54;;;;;;;14.27;10.15;;;22.30;87.70;;;;;;5015607;28;20058;-39
2021/07/13 03:01:21;;;;;;;9.88;8.88;;;22.40;87.80;;;;;;5016005;28;20363;-41
2021/07/13 03:03:48;;;;;;;12.45;9.48;;;22.40;87.30;;;;;;5015648;28;20034;-41
2021/07/13 03:06:15;;;;;;;11.20;9.93;;;22.50;87.20;;;;;;5015734;28;20022;-39
2021/07/13 03:08:41;;;;;;;11.13;9.32;;;22.50;86.80;;;;;;5015709;28;20121;-39
2021/07/13 03:11:07;;;;;;;12.80;10.38;;;22.60;86.90;;;;;;5015636;28;20393;-40
2021/07/13 03:13:33;;;;;;;12.10;10.52;;;22.60;86.80;;;;;;5015507;28;20323;-39
2021/07/13 03:15:59;;;;;;;17.30;10.55;;;22.70;86.20;;;;;;5015864;28;20053;-43
2021/07/13 03:18:25;;;;;;;10.98;9.27;;;22.70;85.60;;;;;;5017280;28;20117;-41
2021/07/13 03:20:54;;;;;;;12.15;9.15;;;22.70;86.20;;;;;;5019349;28;20109;-39
2021/07/13 03:23:21;;;;;;;11.50;9.32;;;22.80;86.30;;;;;;5019260;28;20040;-40
2021/07/13 03:25:49;;;;;;;11.48;10.15;;;22.80;86.20;;;;;;5019608;28;20026;-39
2021/07/13 03:28:16;;;;;;;11.45;9.90;;;22.80;86.40;;;;;;5019314;28;20402;-39
2021/07/13 03:30:42;;;;;;;11.10;9.88;;;22.90;86.40;;;;;;5018983;28;20042;-42
2021/07/13 03:33:13;;;;;;;11.80;10.60;;;22.90;86.30;;;;;;5019110;28;20056;-42
2021/07/13 03:35:39;;;;;;;13.95;11.43;;;23.00;86.60;;;;;;5019405;28;20033;-42
2021/07/13 03:38:05;;;;;;;11.98;10.60;;;23.00;86.10;;;;;;5019341;28;20030;-39
2021/07/13 03:40:31;;;;;;;14.88;10.75;;;23.00;86.30;;;;;;5018901;28;20033;-43
2021/07/13 03:42:58;;;;;;;13.23;10.10;;;23.00;86.10;;;;;;5019366;28;20116;-43
2021/07/13 03:45:25;;;;;;;16.35;12.00;;;23.00;85.80;;;;;;5018655;28;20036;-39
2021/07/13 03:47:56;;;;;;;13.38;11.32;;;23.10;85.90;;;;;;5019178;28;20390;-43
2021/07/13 03:50:33;;;;;;;11.90;10.48;;;23.10;85.90;;;;;;5018603;28;20113;-39
2021/07/13 03:53:00;;;;;;;13.23;11.45;;;23.10;85.90;;;;;;5018711;28;20034;-39
2021/07/13 03:55:26;;;;;;;14.88;12.23;;;23.10;85.90;;;;;;5018530;28;20030;-43
2021/07/13 03:57:53;;;;;;;13.57;12.15;;;23.10;85.70;;;;;;5018894;28;20371;-39
2021/07/13 04:00:21;;;;;;;15.80;12.20;;;23.10;85.50;;;;;;5018423;28;20084;-39
2021/07/13 04:02:46;;;;;;;13.68;11.63;;;23.20;85.60;;;;;;5018807;28;20030;-43
2021/07/13 04:05:13;;;;;;;12.85;11.20;;;23.20;85.50;;;;;;5018331;28;20034;-43
2021/07/13 04:07:39;;;;;;;15.95;12.23;;;23.20;85.60;;;;;;5018926;28;20065;-42
2021/07/13 04:10:07;;;;;;;14.45;12.25;;;23.30;85.50;;;;;;5018122;28;20276;-39
2021/07/13 04:12:33;;;;;;;15.73;12.63;;;23.30;85.90;;;;;;5018676;28;20100;-42
2021/07/13 04:14:59;;;;;;;21.02;14.15;;;23.30;85.80;;;;;;5017910;28;20052;-39
2021/07/13 04:17:25;;;;;;;17.55;13.00;;;23.30;85.50;;;;;;5018105;28;20018;-42
2021/07/13 04:19:51;;;;;;;14.77;11.93;;;23.40;85.70;;;;;;5017982;28;20054;-39
2021/07/13 04:22:16;;;;;;;13.45;11.95;;;23.40;85.60;;;;;;5018301;28;20025;-42
2021/07/13 04:24:42;;;;;;;12.80;11.25;;;23.40;85.70;;;;;;5018284;28;20029;-40
2021/07/13 04:27:08;;;;;;;13.05;11.63;;;23.50;85.70;;;;;;5018422;28;20113;-39
2021/07/13 04:29:33;;;;;;;13.48;11.00;;;23.50;85.40;;;;;;5016672;28;20309;-42
2021/07/13 04:31:59;;;;;;;13.57;11.43;;;23.50;85.20;;;;;;5017976;28;20030;-40
2021/07/13 04:34:25;;;;;;;13.23;11.05;;;23.50;85.10;;;;;;5018014;28;20034;-42
2021/07/13 04:36:50;;;;;;;12.88;10.65;;;23.60;84.70;;;;;;5018122;28;20044;-42
2021/07/13 04:39:16;;;;;;;13.05;10.77;;;23.60;84.30;;;;;;5017449;28;20436;-43
2021/07/13 04:41:42;;;;;;;12.60;10.32;;;23.60;84.50;;;;;;5018078;28;20036;-43
2021/07/13 04:44:07;;;;;;;12.30;10.57;;;23.60;83.50;;;;;;5017700;28;20030;-44
2021/07/13 04:46:33;;;;;;;11.38;9.90;;;23.60;82.90;;;;;;5017542;28;20040;-40
2021/07/13 04:48:59;;;;;;;17.33;12.23;;;23.70;82.50;;;;;;5017268;28;20037;-39
2021/07/13 04:51:25;;;;;;;14.25;11.35;;;23.70;82.20;;;;;;5017548;28;20121;-46
2021/07/13 04:53:51;;;;;;;14.02;10.60;;;23.70;81.80;;;;;;5017218;28;20041;-39
2021/07/13 04:56:18;;;;;;;12.27;9.95;;;23.70;82.00;;;;;;5017349;28;20326;-42
2021/07/13 04:58:44;;;;;;;12.13;10.43;;;23.80;82.10;;;;;;5017244;28;20048;-39
2021/07/13 05:01:09;;;;;;;12.23;10.90;;;23.80;82.40;;;;;;5017136;28;20029;-42
2021/07/13 05:03:35;;;;;;;14.23;10.65;;;23.90;82.60;;;;;;5016913;28;20073;-43
2021/07/13 05:06:01;;;;;;;13.63;10.52;;;23.90;82.20;;;;;;5017556;28;20026;-42
2021/07/13 05:08:27;;;;;;;14.57;11.43;;;23.90;82.60;;;;;;5017256;28;20291;-42
2021/07/13 05:10:53;;;;;;;13.18;10.75;;;24.00;82.30;;;;;;5017095;28;20029;-39
2021/07/13 05:13:19;;;;;;;12.77;10.15;;;24.00;82.70;;;;;;5017239;28;20295;-39
2021/07/13 05:15:45;;;;;;;12.10;10.48;;;24.10;82.60;;;;;;5016862;28;20064;-39
2021/07/13 05:18:12;;;;;;;10.82;9.73;;;24.10;82.80;;;;;;5017264;28;20113;-39
2021/07/13 05:20:43;;;;;;;12.13;10.15;;;24.20;82.50;;;;;;5016979;28;20022;-39
2021/07/13 05:23:10;;;;;;;12.13;10.60;;;24.20;81.30;;;;;;5017131;28;20373;-42
2021/07/13 05:25:39;;;;;;;13.50;9.82;;;24.30;81.20;;;;;;5016662;28;20034;-41
2021/07/13 05:28:10;;;;;;;11.13;9.73;;;24.30;81.00;;;;;;5017071;28;20030;-38
2021/07/13 05:30:39;;;;;;;10.75;9.45;;;24.40;81.00;;;;;;5016707;28;20092;-42
2021/07/13 05:33:04;;;;;;;12.07;9.43;;;24.40;81.10;;;;;;5016722;28;20037;-41
2021/07/13 05:35:30;;;;;;;11.60;9.95;;;24.50;81.20;;;;;;5017122;28;20033;-39
2021/07/13 05:37:56;;;;;;;11.43;9.88;;;24.50;80.60;;;;;;5016695;28;20072;-41
2021/07/13 05:40:21;;;;;;;10.15;9.05;;;24.60;79.80;;;;;;5016281;28;20088;-41
2021/07/13 05:42:47;;;;;;;9.95;8.95;;;24.60;79.50;;;;;;5016508;28;20332;-42
2021/07/13 05:45:13;;;;;;;14.95;9.60;;;24.60;79.40;;;;;;5015907;28;20322;-42
2021/07/13 05:47:39;;;;;;;22.90;10.68;;;24.60;78.40;;;;;;5016463;28;20314;-42
2021/07/13 05:50:07;;;;;;;9.60;8.38;;;24.70;78.00;;;;;;5016317;28;20105;-39
2021/07/13 05:52:33;;;;;;;11.02;8.88;;;24.80;77.60;;;;;;5016083;28;20033;-39
2021/07/13 05:54:59;;;;;;;10.80;8.60;;;24.80;77.70;;;;;;5015817;28;20119;-43
2021/07/13 05:57:26;;;;;;;12.88;9.60;;;24.80;77.80;;;;;;5016358;28;20072;-38
2021/07/13 05:59:53;;;;;;;10.73;9.23;;;24.80;77.80;;;;;;5016368;28;20093;-39
2021/07/13 06:02:18;;;;;;;9.95;8.93;;;24.90;77.90;;;;;;5016534;28;20428;-41
2021/07/13 06:04:44;;;;;;;10.35;8.13;;;24.90;77.50;;;;;;5015929;28;20118;-42
2021/07/13 06:07:10;;;;;;;10.15;9.10;;;25.00;77.40;;;;;;5016096;28;20040;-39
2021/07/13 06:09:35;;;;;;;9.57;8.20;;;25.00;76.50;;;;;;5016029;28;20044;-39
2021/07/13 06:12:01;;;;;;;9.32;8.23;;;25.00;76.30;;;;;;5015821;28;20057;-42
2021/07/13 06:14:27;;;;;;;12.90;8.32;;;25.10;76.70;;;;;;5015654;28;20104;-43
2021/07/13 06:16:53;;;;;;;17.25;9.43;;;25.10;76.60;;;;;;5016101;28;20452;-40
2021/07/13 06:19:18;;;;;;;10.25;8.68;;;25.20;75.90;;;;;;5015750;28;20045;-41
2021/07/13 06:21:45;;;;;;;12.50;10.00;;;25.20;75.40;;;;;;5016022;28;20022;-40
2021/07/13 06:24:11;;;;;;;11.48;9.00;;;25.20;75.50;;;;;;5016097;28;20049;-39
2021/07/13 06:26:37;;;;;;;12.13;8.50;;;25.30;75.60;;;;;;5015662;28;20173;-41
2021/07/13 06:29:03;;;;;;;10.57;7.93;;;25.40;75.10;;;;;;5015860;28;20410;-41
2021/07/13 06:31:29;;;;;;;10.13;8.23;;;25.40;73.90;;;;;;5015629;28;20109;-39
2021/07/13 06:33:55;;;;;;;10.10;7.72;;;25.40;74.40;;;;;;5015653;28;20129;-42
2021/07/13 06:36:21;;;;;;;8.38;7.47;;;25.40;73.20;;;;;;5015692;28;20030;-40
2021/07/13 06:38:47;;;;;;;8.60;7.70;;;25.50;73.40;;;;;;5015605;28;20034;-41
2021/07/13 06:41:12;;;;;;;10.02;7.85;;;25.50;73.30;;;;;;5015676;28;20066;-38
2021/07/13 06:43:38;;;;;;;16.92;8.73;;;25.60;72.00;;;;;;5014423;28;20065;-41
2021/07/13 06:46:04;;;;;;;9.68;8.63;;;25.60;71.80;;;;;;5015864;28;20026;-39
2021/07/13 06:48:30;;;;;;;13.20;8.27;;;25.60;71.90;;;;;;5015709;28;20037;-39
2021/07/13 06:50:56;;;;;;;10.93;8.43;;;25.70;72.40;;;;;;5015747;28;20030;-41
2021/07/13 06:53:22;;;;;;;12.02;8.15;;;25.70;72.10;;;;;;5019252;28;20295;-41
2021/07/13 06:55:47;;;;;;;9.75;8.23;;;25.80;72.20;;;;;;5019958;28;20354;-38
2021/07/13 06:58:13;;;;;;;9.63;8.10;;;25.80;71.90;;;;;;5019511;28;20030;-38
2021/07/13 07:00:39;;;;;;;11.02;8.07;;;25.80;71.80;;;;;;5019300;28;20077;-39
2021/07/13 07:03:04;;;;;;;10.13;8.43;;;25.90;71.60;;;;;;5019338;28;20037;-41
2021/07/13 07:05:31;;;;;;;10.50;8.15;;;25.90;71.40;;;;;;5019309;28;20114;-39
2021/07/13 07:07:56;;;;;;;10.98;8.75;;;25.90;71.30;;;;;;5019382;28;20045;-41
2021/07/13 07:10:22;;;;;;;9.32;8.32;;;26.00;71.40;;;;;;5019299;28;20030;-41
2021/07/13 07:12:49;;;;;;;9.90;7.88;;;26.00;71.30;;;;;;5019257;28;20415;-39
2021/07/13 07:15:17;;;;;;;10.85;8.20;;;26.10;70.90;;;;;;5018953;28;20081;-39
2021/07/13 07:17:51;;;;;;;14.50;9.43;;;26.10;70.80;;;;;;5019315;28;20092;-39
2021/07/13 07:20:26;;;;;;;11.52;9.38;;;26.10;70.90;;;;;;5018930;28;20026;-39
2021/07/13 07:22:53;;;;;;;10.77;8.90;;;26.20;70.80;;;;;;5019036;28;20038;-40
2021/07/13 07:25:19;;;;;;;13.23;7.97;;;26.20;70.60;;;;;;5018816;28;20070;-41
2021/07/13 07:27:46;;;;;;;10.55;7.53;;;26.30;70.60;;;;;;5018016;28;20037;-39
2021/07/13 07:30:13;;;;;;;10.70;8.98;;;26.30;70.20;;;;;;5018676;28;20026;-41
2021/07/13 07:32:40;;;;;;;11.02;8.52;;;26.40;70.50;;;;;;5018741;28;20026;-41
2021/07/13 07:35:08;;;;;;;11.98;9.43;;;26.40;69.90;;;;;;5018802;28;20074;-41
2021/07/13 07:37:35;;;;;;;14.55;10.45;;;26.50;70.30;;;;;;5018760;28;20018;-41
2021/07/13 07:40:03;;;;;;;13.23;10.85;;;26.50;70.10;;;;;;5018292;28;20073;-41
2021/07/13 07:42:29;;;;;;;16.15;11.73;;;26.50;69.80;;;;;;5018901;28;20033;-39
2021/07/13 07:44:54;;;;;;;17.52;11.93;;;26.60;69.60;;;;;;5018793;28;20022;-41
2021/07/13 07:47:20;;;;;;;38.05;22.50;;;26.60;69.10;;;;;;5018832;28;20385;-41
2021/07/13 07:49:46;;;;;;;29.25;20.27;;;26.70;68.80;;;;;;5018553;28;20062;-39
2021/07/13 07:52:11;;;;;;;18.92;14.10;;;26.80;69.00;;;;;;5017641;28;20326;-41
2021/07/13 07:54:37;;;;;;;33.13;25.80;;;26.80;68.80;;;;;;5018763;28;20038;-39
2021/07/13 07:57:03;;;;;;;24.92;18.48;;;26.80;68.90;;;;;;5018911;28;20075;-40
2021/07/13 07:59:29;;;;;;;21.65;14.82;;;26.90;68.20;;;;;;5018785;28;20025;-41
2021/07/13 08:01:54;;;;;;;16.65;12.98;;;26.90;68.60;;;;;;5018381;28;20341;-41
2021/07/13 08:04:20;;;;;;;12.52;10.88;;;26.90;68.40;;;;;;5015179;28;20088;-41
2021/07/13 08:06:46;;;;;;;14.50;11.70;;;26.90;68.40;;;;;;5018501;28;20108;-38
2021/07/13 08:09:11;;;;;;;15.10;11.73;;;27.00;68.40;;;;;;5014753;28;20429;-40
2021/07/13 08:11:38;;;;;;;16.60;13.82;;;27.00;68.30;;;;;;5016659;28;20414;-39
2021/07/13 08:14:05;;;;;;;21.88;14.77;;;27.00;68.30;;;;;;5017512;28;20046;-38
2021/07/13 08:16:37;;;;;;;21.35;15.60;;;27.00;68.20;;;;;;5018046;28;20322;-40
2021/07/13 08:19:04;;;;;;;20.77;15.93;;;27.00;68.10;;;;;;5017712;28;20030;-41
2021/07/13 08:21:30;;;;;;;20.55;16.35;;;27.10;68.20;;;;;;5017837;28;20022;-38
2021/07/13 08:23:56;;;;;;;16.00;13.13;;;27.10;68.70;;;;;;5017606;28;20303;-36
2021/07/13 08:26:23;;;;;;;17.00;13.90;;;27.10;68.10;;;;;;5017620;28;20076;-41
2021/07/13 08:28:49;;;;;;;19.98;13.73;;;27.10;68.00;;;;;;5016297;28;20038;-38
2021/07/13 08:31:14;;;;;;;20.65;14.38;;;27.20;68.70;;;;;;5017344;28;20080;-39
2021/07/13 08:33:40;;;;;;;19.40;13.63;;;27.20;68.40;;;;;;5017590;28;20042;-39
2021/07/13 08:36:06;;;;;;;21.98;14.68;;;27.30;68.50;;;;;;5017319;28;20096;-38
2021/07/13 08:38:31;;;;;;;27.20;17.67;;;27.30;68.30;;;;;;5017588;28;20116;-41
2021/07/13 08:40:57;;;;;;;18.40;14.05;;;27.40;67.70;;;;;;5017100;28;20022;-41
2021/07/13 08:43:23;;;;;;;26.77;17.58;;;27.40;67.60;;;;;;5017280;28;20106;-41
2021/07/13 08:45:53;;;;;;;19.25;14.73;;;27.40;68.00;;;;;;5017133;28;20033;-41
2021/07/13 08:48:21;;;;;;;17.25;13.75;;;27.50;67.80;;;;;;5017397;28;20034;-40
2021/07/13 08:50:47;;;;;;;39.08;19.30;;;27.50;67.50;;;;;;5016703;28;20314;-40
2021/07/13 08:53:13;;;;;;;20.90;13.50;;;27.60;67.90;;;;;;5017358;28;20045;-40
2021/07/13 08:55:38;;;;;;;16.23;12.82;;;27.60;67.70;;;;;;5017108;28;20045;-40
2021/07/13 08:58:04;;;;;;;18.02;14.18;;;27.70;67.70;;;;;;5016534;28;20034;-39
2021/07/13 09:00:30;;;;;;;17.42;13.88;;;27.70;67.70;;;;;;5016936;28;20410;-41
2021/07/13 09:03:06;;;;;;;20.85;15.95;;;27.80;67.50;;;;;;5016968;28;20050;-41
2021/07/13 09:05:39;;;;;;;21.30;17.05;;;27.80;67.40;;;;;;5017220;28;20029;-41
2021/07/13 09:08:19;;;;;;;21.92;17.48;;;27.90;68.10;;;;;;5017413;28;20092;-39
2021/07/13 09:10:58;;;;;;;21.50;16.33;;;27.90;67.70;;;;;;5017366;28;20026;-42
2021/07/13 09:13:25;;;;;;;21.17;16.52;;;28.00;67.50;;;;;;5017072;28;20113;-41
2021/07/13 09:15:58;;;;;;;24.30;17.90;;;28.00;67.80;;;;;;5015984;28;20038;-41
2021/07/13 09:18:35;;;;;;;27.30;18.92;;;28.00;67.70;;;;;;5017110;28;20436;-42
2021/07/13 09:21:11;;;;;;;25.92;19.00;;;28.10;67.60;;;;;;5017427;28;20369;-41
2021/07/13 09:24:17;;;;;;;22.52;16.77;;;28.10;67.60;;;;;;5015728;28;20107;-39
2021/07/13 09:26:48;;;;;;;25.52;16.45;;;28.20;67.50;;;;;;5017002;28;20033;-39
2021/07/13 09:29:37;;;;;;;26.27;17.48;;;28.20;67.10;;;;;;5017104;28;20040;-39
2021/07/13 09:32:23;;;;;;;20.47;16.43;;;28.30;67.10;;;;;;5016844;28;20109;-41
2021/07/13 09:35:00;;;;;;;18.50;15.75;;;28.30;67.00;;;;;;5016831;28;20260;-42
2021/07/13 09:37:34;;;;;;;20.30;16.73;;;28.30;67.10;;;;;;5016865;28;20026;-41
2021/07/13 09:40:02;;;;;;;24.63;19.10;;;28.40;66.90;;;;;;5016474;28;20092;-41
2021/07/13 09:42:29;;;;;;;27.23;21.65;;;28.40;67.10;;;;;;5017097;28;20018;-41
2021/07/13 09:45:23;;;;;;;25.95;22.42;;;28.50;66.90;;;;;;5016706;28;20256;-39
2021/07/13 09:47:51;;;;;;;26.67;21.90;;;28.50;66.60;;;;;;5016503;28;20436;-41
2021/07/13 09:50:42;;;;;;;22.13;18.05;;;28.50;66.40;;;;;;5016326;28;20034;-41
2021/07/13 09:53:11;;;;;;;24.10;18.65;;;28.60;66.50;;;;;;5016611;28;20038;-39
2021/07/13 09:55:37;;;;;;;23.77;19.65;;;28.60;66.60;;;;;;5016584;28;20033;-42
2021/07/13 09:58:13;;;;;;;20.10;17.10;;;28.60;66.60;;;;;;5016449;28;20026;-41
2021/07/13 10:00:41;;;;;;;29.10;22.85;;;28.70;66.80;;;;;;5016214;28;20032;-41
2021/07/13 10:03:09;;;;;;;21.80;16.95;;;28.70;66.30;;;;;;5016337;28;20037;-41
2021/07/13 10:05:37;;;;;;;26.40;19.50;;;28.70;66.20;;;;;;5016224;28;20064;-41
2021/07/13 10:08:03;;;;;;;23.52;19.50;;;28.80;66.30;;;;;;5015960;28;20557;-41
2021/07/13 10:10:29;;;;;;;27.92;20.67;;;28.80;66.00;;;;;;5015959;28;20310;-41
2021/07/13 10:12:54;;;;;;;19.13;17.02;;;28.90;65.40;;;;;;5016012;28;20053;-38
2021/07/13 10:15:20;;;;;;;16.35;13.43;;;28.90;65.80;;;;;;5015488;28;20042;-39
2021/07/13 10:17:46;;;;;;;26.83;18.42;;;29.00;65.20;;;;;;5015937;28;20057;-41
2021/07/13 10:20:13;;;;;;;21.23;16.52;;;29.00;65.90;;;;;;5015823;28;20204;-39
2021/07/13 10:22:42;;;;;;;20.80;17.45;;;29.10;65.10;;;;;;5015897;28;20088;-39
2021/07/13 10:25:08;;;;;;;20.58;17.13;;;29.20;65.60;;;;;;5015689;28;20018;-42
2021/07/13 10:27:36;;;;;;;23.40;19.17;;;29.30;66.10;;;;;;5015642;28;20033;-41
2021/07/13 10:30:28;;;;;;;21.45;18.15;;;29.30;65.70;;;;;;5015412;28;20054;-41
2021/07/13 10:32:54;;;;;;;25.23;18.85;;;29.40;64.60;;;;;;5015750;28;20034;-39
2021/07/13 10:35:31;;;;;;;21.25;17.10;;;29.50;64.70;;;;;;5015766;28;20083;-39
2021/07/13 10:38:21;;;;;;;17.55;14.02;;;29.50;64.20;;;;;;5014771;28;20061;-41
2021/07/13 10:40:48;;;;;;;26.75;18.98;;;29.50;64.10;;;;;;5016173;28;20357;-40
2021/07/13 10:43:23;;;;;;;23.85;19.75;;;29.60;64.30;;;;;;5015977;28;20030;-39
2021/07/13 10:46:06;;;;;;;23.25;14.05;;;29.60;64.00;;;;;;5015576;28;20036;-41
2021/07/13 10:48:31;;;;;;;17.85;15.55;;;29.70;63.50;;;;;;5015908;28;20030;-39
2021/07/13 10:51:03;;;;;;;21.02;17.20;;;29.80;64.10;;;;;;5015463;28;20326;-41
2021/07/13 10:53:39;;;;;;;27.73;20.65;;;29.90;63.40;;;;;;5015639;28;20030;-43
2021/07/13 10:56:12;;;;;;;21.15;16.75;;;30.00;63.20;;;;;;5015727;28;20117;-41
2021/07/13 10:58:49;;;;;;;17.10;14.48;;;30.00;63.70;;;;;;5015869;28;20428;-41
2021/07/13 11:01:21;;;;;;;25.73;16.42;;;30.10;62.30;;;;;;5015619;28;20034;-40
2021/07/13 11:03:46;;;;;;;17.88;13.05;;;30.20;62.70;;;;;;5015791;28;20040;-39
2021/07/13 11:06:14;;;;;;;18.65;15.32;;;30.30;62.10;;;;;;5015499;28;20037;-39
2021/07/13 11:08:56;;;;;;;20.77;17.40;;;30.30;62.60;;;;;;5015590;28;20100;-39
2021/07/13 11:11:28;;;;;;;14.55;12.02;;;30.40;61.70;;;;;;5015590;28;20095;-42
2021/07/13 11:14:02;;;;;;;15.05;13.30;;;30.50;61.20;;;;;;5015305;28;20125;-41
2021/07/13 11:16:39;;;;;;;14.32;12.38;;;30.60;61.30;;;;;;5015434;28;20030;-41
2021/07/13 11:19:12;;;;;;;20.52;13.75;;;30.70;60.80;;;;;;5015581;28;20317;-39
2021/07/13 11:21:48;;;;;;;15.85;13.48;;;30.80;60.60;;;;;;5015017;28;20096;-39
2021/07/13 11:24:21;;;;;;;16.27;12.63;;;30.90;60.00;;;;;;5015136;28;20034;-39
2021/07/13 11:26:54;;;;;;;14.82;11.32;;;31.00;59.70;;;;;;5015372;28;20069;-40
2021/07/13 11:29:27;;;;;;;14.77;11.43;;;31.10;58.90;;;;;;5015654;28;20062;-39
2021/07/13 11:31:58;;;;;;;13.25;10.15;;;31.20;58.70;;;;;;5015437;28;20037;-39
2021/07/13 11:34:30;;;;;;;11.77;10.57;;;31.30;58.40;;;;;;5015542;28;20030;-42
2021/07/13 11:36:55;;;;;;;12.18;10.15;;;31.40;58.00;;;;;;5015222;28;20105;-39
2021/07/13 11:39:30;;;;;;;12.35;10.23;;;31.50;57.10;;;;;;5017126;28;20064;-41
2021/07/13 11:41:58;;;;;;;9.93;8.48;;;31.60;57.20;;;;;;5018640;28;20104;-41
2021/07/13 11:44:24;;;;;;;8.25;6.85;;;31.70;55.30;;;;;;5018919;28;20033;-42
2021/07/13 11:46:52;;;;;;;11.55;8.18;;;31.90;54.60;;;;;;5018562;28;20038;-39
2021/07/13 11:49:20;;;;;;;6.22;5.53;;;31.90;53.90;;;;;;5015874;28;20385;-39
2021/07/13 11:51:48;;;;;;;9.75;7.03;;;32.10;52.00;;;;;;5018646;28;20033;-39
2021/07/13 11:54:15;;;;;;;9.10;6.70;;;32.20;52.70;;;;;;5018606;28;20030;-41
2021/07/13 11:56:46;;;;;;;17.02;10.20;;;32.30;52.60;;;;;;5018534;28;20033;-39
2021/07/13 11:59:14;;;;;;;8.57;7.30;;;32.50;51.90;;;;;;5018491;28;20651;-41
2021/07/13 12:01:40;;;;;;;12.40;9.23;;;32.70;52.00;;;;;;5018391;28;20037;-41
2021/07/13 12:04:12;;;;;;;14.90;8.98;;;32.80;52.50;;;;;;5018261;28;20041;-39
2021/07/13 12:06:40;;;;;;;10.77;8.75;;;33.10;51.50;;;;;;5018320;28;20022;-39
2021/07/13 12:09:13;;;;;;;9.77;8.15;;;33.20;52.00;;;;;;5018322;28;20041;-39
2021/07/13 12:11:45;;;;;;;9.02;8.05;;;33.40;51.30;;;;;;5017897;28;20029;-41
2021/07/13 12:14:13;;;;;;;12.32;8.00;;;33.50;50.80;;;;;;5017453;28;20061;-41
2021/07/13 12:16:40;;;;;;;9.25;8.25;;;33.70;50.10;;;;;;5018389;28;20026;-41
2021/07/13 12:19:19;;;;;;;10.23;7.07;;;33.80;49.60;;;;;;5018048;28;20041;-39
2021/07/13 12:21:47;;;;;;;11.07;7.82;;;34.00;49.30;;;;;;5018298;28;20057;-40
2021/07/13 12:24:19;;;;;;;24.48;10.45;;;34.10;48.90;;;;;;5017979;28;20495;-41
2021/07/13 12:26:57;;;;;;;9.80;8.70;;;34.20;48.40;;;;;;5017779;28;20314;-41
2021/07/13 12:29:32;;;;;;;8.63;7.70;;;34.40;48.60;;;;;;5017877;28;20038;-39
2021/07/13 12:32:00;;;;;;;13.27;8.45;;;34.50;48.50;;;;;;5017687;28;20033;-41
2021/07/13 12:34:31;;;;;;;9.98;8.45;;;34.70;48.40;;;;;;5017813;28;20038;-39
2021/07/13 12:37:18;;;;;;;11.73;9.52;;;34.70;48.00;;;;;;5017807;28;20025;-41
2021/07/13 12:39:51;;;;;;;12.07;8.57;;;34.90;47.70;;;;;;5017146;28;20120;-40
2021/07/13 12:42:23;;;;;;;9.95;7.82;;;35.00;47.90;;;;;;5017417;28;20061;-42
2021/07/13 12:45:12;;;;;;;15.73;9.27;;;35.10;47.20;;;;;;5017554;28;20037;-39